createdAt,value
2022-09-12T00:00:52.928Z,12.06
2022-09-12T00:02:25.363Z,12.04
2022-09-12T00:03:58.706Z,12.02
2022-09-12T00:05:32.285Z,12.01
2022-09-12T00:07:04.387Z,12.00
2022-09-12T00:08:37.519Z,12.01
2022-09-12T00:10:09.631Z,12.00
2022-09-12T00:11:46.111Z,12.01
2022-09-12T00:13:18.239Z,12.00
2022-09-12T00:14:50.331Z,11.99
2022-09-12T00:16:23.498Z,11.98
2022-09-12T00:17:55.892Z,11.99
2022-09-12T00:19:28.788Z,11.99
2022-09-12T00:21:04.834Z,11.98
2022-09-12T00:22:37.270Z,11.98
2022-09-12T00:24:10.643Z,11.98
2022-09-12T00:25:46.809Z,11.98
2022-09-12T00:27:18.955Z,11.96
2022-09-12T00:28:51.239Z,11.93
2022-09-12T00:30:23.979Z,11.91
2022-09-12T00:31:56.240Z,11.90
2022-09-12T00:33:28.337Z,11.90
2022-09-12T00:35:02.794Z,11.89
2022-09-12T00:36:35.745Z,11.88
2022-09-12T00:38:07.779Z,11.88
2022-09-12T00:39:39.883Z,11.87
2022-09-12T00:41:19.248Z,11.88
2022-09-12T00:42:52.393Z,11.88
2022-09-12T00:44:24.470Z,11.87
2022-09-12T00:45:57.970Z,11.86
2022-09-12T00:47:31.713Z,11.85
2022-09-12T00:49:10.186Z,11.88
2022-09-12T00:50:42.211Z,11.87
2022-09-12T00:52:21.796Z,11.87
2022-09-12T00:53:55.361Z,11.87
2022-09-12T00:55:30.203Z,11.86
2022-09-12T00:57:04.725Z,11.86
2022-09-12T00:58:40.058Z,11.87
2022-09-12T01:00:16.894Z,11.88
2022-09-12T01:01:50.908Z,11.90
2022-09-12T01:03:23.479Z,11.91
2022-09-12T01:04:56.009Z,11.92
2022-09-12T01:06:29.762Z,11.93
2022-09-12T01:08:03.278Z,11.94
2022-09-12T01:09:36.686Z,11.95
2022-09-12T01:11:09.713Z,11.95
2022-09-12T01:12:43.403Z,11.96
2022-09-12T01:14:16.813Z,11.96
2022-09-12T01:15:48.827Z,11.94
2022-09-12T01:17:21.342Z,11.91
2022-09-12T01:19:03.545Z,11.87
2022-09-12T01:20:57.994Z,11.83
2022-09-12T01:22:30.209Z,11.83
2022-09-12T01:24:20.765Z,11.83
2022-09-12T01:26:11.951Z,11.83
2022-09-12T01:27:43.996Z,11.83
2022-09-12T01:29:22.106Z,11.82
2022-09-12T01:31:00.770Z,11.82
2022-09-12T01:32:45.709Z,11.82
2022-09-12T01:34:26.436Z,11.81
2022-09-12T01:36:08.840Z,11.80
2022-09-12T01:37:54.662Z,11.80
2022-09-12T01:39:49.889Z,11.80
2022-09-12T01:41:41.160Z,11.81
2022-09-12T01:43:31.904Z,11.82
2022-09-12T01:45:09.929Z,11.84
2022-09-12T01:46:45.806Z,11.86
2022-09-12T01:48:29.874Z,11.87
2022-09-12T01:50:05.226Z,11.86
2022-09-12T01:52:04.567Z,11.87
2022-09-12T01:53:39.515Z,11.87
2022-09-12T01:55:13.689Z,11.89
2022-09-12T01:56:45.919Z,11.90
2022-09-12T01:58:20.977Z,11.93
2022-09-12T01:59:56.626Z,11.93
2022-09-12T02:01:30.793Z,11.95
2022-09-12T02:03:10.933Z,11.97
2022-09-12T02:04:48.923Z,12.00
2022-09-12T02:06:23.731Z,12.06
2022-09-12T02:08:16.068Z,12.09
2022-09-12T02:09:52.234Z,12.16
2022-09-12T02:11:24.877Z,12.19
2022-09-12T02:12:59.781Z,12.22
2022-09-12T02:14:34.046Z,12.26
2022-09-12T02:16:10.746Z,12.28
2022-09-12T02:17:44.397Z,12.32
2022-09-12T02:19:18.143Z,12.33
2022-09-12T02:20:51.730Z,12.37
2022-09-12T02:22:25.594Z,12.37
2022-09-12T02:23:59.569Z,12.40
2022-09-12T02:25:31.601Z,12.41
2022-09-12T02:27:06.177Z,12.42
2022-09-12T02:28:40.559Z,12.43
2022-09-12T02:30:16.495Z,12.44
2022-09-12T02:31:50.985Z,12.45
2022-09-12T02:33:35.055Z,12.45
2022-09-12T02:35:09.476Z,12.45
2022-09-12T02:37:00.535Z,12.44
2022-09-12T02:38:44.503Z,12.45
2022-09-12T02:40:16.872Z,12.44
2022-09-12T02:41:53.091Z,12.45
2022-09-12T02:43:25.258Z,12.45
2022-09-12T02:44:57.423Z,12.45
2022-09-12T02:46:55.757Z,12.47
2022-09-12T02:48:30.586Z,12.48
2022-09-12T02:50:05.189Z,12.48
2022-09-12T02:51:37.648Z,12.50
2022-09-12T02:53:10.673Z,12.51
2022-09-12T02:54:43.655Z,12.52
2022-09-12T02:56:19.265Z,12.53
2022-09-12T02:57:51.304Z,12.54
2022-09-12T02:59:24.567Z,12.55
2022-09-12T03:01:03.505Z,12.54
2022-09-12T03:02:38.550Z,12.56
2022-09-12T03:04:29.394Z,12.58
2022-09-12T03:06:04.446Z,12.60
2022-09-12T03:07:39.165Z,12.61
2022-09-12T03:09:36.629Z,12.62
2022-09-12T03:11:23.247Z,12.62
2022-09-12T03:13:01.326Z,12.63
2022-09-12T03:14:51.532Z,12.64
2022-09-12T03:16:31.352Z,12.63
2022-09-12T03:18:17.237Z,12.64
2022-09-12T03:20:05.229Z,12.64
2022-09-12T03:21:37.548Z,12.64
2022-09-12T03:23:18.918Z,12.64
2022-09-12T03:24:58.105Z,12.65
2022-09-12T03:26:38.228Z,12.65
2022-09-12T03:28:15.395Z,12.65
2022-09-12T03:29:48.207Z,12.63
2022-09-12T03:31:20.493Z,12.62
2022-09-12T03:32:53.731Z,12.60
2022-09-12T03:34:27.892Z,12.56
2022-09-12T03:36:00.003Z,12.53
2022-09-12T03:37:32.473Z,12.49
2022-09-12T03:39:04.516Z,12.46
2022-09-12T03:40:37.674Z,12.44
2022-09-12T03:42:09.848Z,12.40
2022-09-12T03:43:42.019Z,12.37
2022-09-12T03:45:14.240Z,12.35
2022-09-12T03:46:46.647Z,12.33
2022-09-12T03:48:18.723Z,12.32
2022-09-12T03:49:52.532Z,12.29
2022-09-12T03:51:24.611Z,12.27
2022-09-12T03:52:59.046Z,12.26
2022-09-12T03:54:31.119Z,12.24
2022-09-12T03:56:07.478Z,12.22
2022-09-12T03:57:39.673Z,12.20
2022-09-12T03:59:12.098Z,12.19
2022-09-12T04:00:44.397Z,12.20
2022-09-12T04:02:16.912Z,12.19
2022-09-12T04:03:50.189Z,12.18
2022-09-12T04:05:22.867Z,12.18
2022-09-12T04:06:55.204Z,12.17
2022-09-12T04:08:27.374Z,12.16
2022-09-12T04:09:59.498Z,12.14
2022-09-12T04:11:32.363Z,12.12
2022-09-12T04:13:04.569Z,12.10
2022-09-12T04:14:36.710Z,12.10
2022-09-12T04:16:09.348Z,12.09
2022-09-12T04:17:42.141Z,12.09
2022-09-12T04:19:14.427Z,12.10
2022-09-12T04:20:46.724Z,12.10
2022-09-12T04:22:18.798Z,12.11
2022-09-12T04:23:51.691Z,12.11
2022-09-12T04:25:24.192Z,12.15
2022-09-12T04:26:56.261Z,12.19
2022-09-12T04:28:32.946Z,12.23
2022-09-12T04:30:05.752Z,12.28
2022-09-12T04:31:37.760Z,12.33
2022-09-12T04:33:09.997Z,12.36
2022-09-12T04:34:42.087Z,12.38
2022-09-12T04:36:16.782Z,12.40
2022-09-12T04:37:48.835Z,12.43
2022-09-12T04:39:21.133Z,12.44
2022-09-12T04:40:53.186Z,12.46
2022-09-12T04:42:26.490Z,12.47
2022-09-12T04:44:01.446Z,12.50
2022-09-12T04:45:33.831Z,12.53
2022-09-12T04:47:05.899Z,12.55
2022-09-12T04:48:38.331Z,12.56
2022-09-12T04:50:10.376Z,12.56
2022-09-12T04:51:43.420Z,12.58
2022-09-12T04:53:15.458Z,12.60
2022-09-12T04:54:47.891Z,12.64
2022-09-12T04:56:20.205Z,12.69
2022-09-12T04:57:53.050Z,12.73
2022-09-12T04:59:25.108Z,12.76
2022-09-12T05:01:03.935Z,12.76
2022-09-12T05:02:36.070Z,12.78
2022-09-12T05:04:09.696Z,12.79
2022-09-12T05:05:41.683Z,12.77
2022-09-12T05:07:14.160Z,12.77
2022-09-12T05:08:46.329Z,12.78
2022-09-12T05:10:18.507Z,12.79
2022-09-12T05:12:06.045Z,12.82
2022-09-12T05:13:38.946Z,12.86
2022-09-12T05:15:11.078Z,12.91
2022-09-12T05:16:46.127Z,12.97
2022-09-12T05:18:21.428Z,13.05
2022-09-12T05:19:53.866Z,13.08
2022-09-12T05:21:26.595Z,13.14
2022-09-12T05:22:59.775Z,13.16
2022-09-12T05:24:32.651Z,13.20
2022-09-12T05:26:06.035Z,13.24
2022-09-12T05:27:38.228Z,13.50
2022-09-12T05:29:10.348Z,14.11
2022-09-12T05:30:42.397Z,14.53
2022-09-12T05:32:14.897Z,14.36
2022-09-12T05:33:48.338Z,14.16
2022-09-12T05:35:20.456Z,14.03
2022-09-12T05:36:52.581Z,13.92
2022-09-12T05:38:25.182Z,13.88
2022-09-12T05:40:00.000Z,13.84
2022-09-12T05:41:34.396Z,13.80
2022-09-12T05:43:06.415Z,13.78
2022-09-12T05:44:38.849Z,13.76
2022-09-12T05:46:20.612Z,13.76
2022-09-12T05:47:53.101Z,13.72
2022-09-12T05:49:25.138Z,13.71
2022-09-12T05:51:01.707Z,13.75
2022-09-12T05:52:33.934Z,13.77
2022-09-12T05:54:07.294Z,13.79
2022-09-12T05:55:41.910Z,13.82
2022-09-12T05:57:14.446Z,13.89
2022-09-12T05:58:48.002Z,14.01
2022-09-12T06:00:20.810Z,14.07
2022-09-12T06:01:52.858Z,14.10
2022-09-12T06:03:25.444Z,14.42
2022-09-12T06:04:57.880Z,14.48
2022-09-12T06:06:30.598Z,14.54
2022-09-12T06:08:02.892Z,14.52
2022-09-12T06:09:35.331Z,14.49
2022-09-12T06:11:07.926Z,14.46
2022-09-12T06:12:40.100Z,14.45
2022-09-12T06:14:15.281Z,14.48
2022-09-12T06:15:47.785Z,14.42
2022-09-12T06:17:19.870Z,14.41
2022-09-12T06:18:53.760Z,14.37
2022-09-12T06:20:25.871Z,14.39
2022-09-12T06:21:58.912Z,14.42
2022-09-12T06:23:31.058Z,14.44
2022-09-12T06:25:03.233Z,14.44
2022-09-12T06:26:35.817Z,14.41
2022-09-12T06:28:08.666Z,14.41
2022-09-12T06:29:40.742Z,14.44
2022-09-12T06:31:14.426Z,14.44
2022-09-12T06:32:46.471Z,14.46
2022-09-12T06:34:20.013Z,14.45
2022-09-12T06:35:52.152Z,14.45
2022-09-12T06:37:24.308Z,14.42
2022-09-12T06:38:57.912Z,14.48
2022-09-12T06:40:30.299Z,14.52
2022-09-12T06:42:02.348Z,14.54
2022-09-12T06:43:39.847Z,14.57
2022-09-12T06:45:11.854Z,14.61
2022-09-12T06:46:44.673Z,14.66
2022-09-12T06:48:16.787Z,14.99
2022-09-12T06:49:49.312Z,15.42
2022-09-12T06:51:21.493Z,15.52
2022-09-12T06:52:54.045Z,16.19
2022-09-12T06:54:27.118Z,17.02
2022-09-12T06:56:00.668Z,17.28
2022-09-12T06:57:36.374Z,17.41
2022-09-12T06:59:08.763Z,17.28
2022-09-12T07:00:40.970Z,17.15
2022-09-12T07:02:13.164Z,17.07
2022-09-12T07:03:49.363Z,16.99
2022-09-12T07:05:22.249Z,16.98
2022-09-12T07:06:54.267Z,17.20
2022-09-12T07:08:26.676Z,17.82
2022-09-12T07:09:58.776Z,18.70
2022-09-12T07:11:32.717Z,19.16
2022-09-12T07:13:04.696Z,19.08
2022-09-12T07:14:36.898Z,18.88
2022-09-12T07:16:10.121Z,18.61
2022-09-12T07:17:42.692Z,18.28
2022-09-12T07:19:14.800Z,18.18
2022-09-12T07:20:46.956Z,18.24
2022-09-12T07:22:19.181Z,18.27
2022-09-12T07:24:00.712Z,18.52
2022-09-12T07:25:32.747Z,18.51
2022-09-12T07:27:05.083Z,18.40
2022-09-12T07:28:37.215Z,18.27
2022-09-12T07:30:09.768Z,18.10
2022-09-12T07:31:41.864Z,18.19
2022-09-12T07:33:14.109Z,18.36
2022-09-12T07:34:46.125Z,18.65
2022-09-12T07:36:19.935Z,18.82
2022-09-12T07:37:51.989Z,18.97
2022-09-12T07:39:24.168Z,19.08
2022-09-12T07:40:56.212Z,18.94
2022-09-12T07:42:29.903Z,18.64
2022-09-12T07:44:02.732Z,18.56
2022-09-12T07:45:35.171Z,18.57
2022-09-12T07:47:07.491Z,18.52
2022-09-12T07:48:40.372Z,18.71
2022-09-12T07:50:12.445Z,19.11
2022-09-12T07:51:44.536Z,19.03
2022-09-12T07:53:16.541Z,18.95
2022-09-12T07:54:48.989Z,18.98
2022-09-12T07:56:22.052Z,19.05
2022-09-12T07:57:56.324Z,19.19
2022-09-12T07:59:50.967Z,19.12
2022-09-12T08:01:23.344Z,18.98
2022-09-12T08:02:56.565Z,18.87
2022-09-12T08:04:28.834Z,18.65
2022-09-12T08:06:11.052Z,18.45
2022-09-12T08:07:43.521Z,18.22
2022-09-12T08:09:17.491Z,17.98
2022-09-12T08:10:49.716Z,17.82
2022-09-12T08:12:21.902Z,17.68
2022-09-12T08:13:56.261Z,17.54
2022-09-12T08:15:28.441Z,17.41
2022-09-12T08:17:00.939Z,17.16
2022-09-12T08:18:33.263Z,17.09
2022-09-12T08:20:06.032Z,17.19
2022-09-12T08:21:38.108Z,17.24
2022-09-12T08:23:10.384Z,17.15
2022-09-12T08:24:43.857Z,17.06
2022-09-12T08:26:16.297Z,17.01
2022-09-12T08:27:48.736Z,16.90
2022-09-12T08:29:21.456Z,16.89
2022-09-12T08:30:53.953Z,16.85
2022-09-12T08:32:26.418Z,16.91
2022-09-12T08:33:58.582Z,16.87
2022-09-12T08:35:30.677Z,16.92
2022-09-12T08:37:03.021Z,17.01
2022-09-12T08:38:36.270Z,17.27
2022-09-12T08:40:14.152Z,17.48
2022-09-12T08:41:47.397Z,17.65
2022-09-12T08:43:31.070Z,17.68
2022-09-12T08:45:09.085Z,17.67
2022-09-12T08:46:46.830Z,17.60
2022-09-12T08:48:19.372Z,17.52
2022-09-12T08:49:54.854Z,17.41
2022-09-12T08:51:28.414Z,17.31
2022-09-12T08:53:03.513Z,17.27
2022-09-12T08:54:35.732Z,17.21
2022-09-12T08:56:11.470Z,17.20
2022-09-12T08:57:44.203Z,17.12
2022-09-12T08:59:16.629Z,17.09
2022-09-12T09:00:59.592Z,17.08
2022-09-12T09:02:37.703Z,17.08
2022-09-12T09:04:20.274Z,17.09
2022-09-12T09:06:03.159Z,17.06
2022-09-12T09:07:52.692Z,17.04
2022-09-12T09:09:36.240Z,17.06
2022-09-12T09:11:20.811Z,17.07
2022-09-12T09:12:52.849Z,17.08
2022-09-12T09:14:46.931Z,17.10
2022-09-12T09:16:19.142Z,17.11
2022-09-12T09:17:58.154Z,17.14
2022-09-12T09:19:33.102Z,17.16
2022-09-12T09:21:11.712Z,17.22
2022-09-12T09:22:53.674Z,17.29
2022-09-12T09:24:28.459Z,17.38
2022-09-12T09:26:10.890Z,17.47
2022-09-12T09:27:52.010Z,17.58
2022-09-12T09:29:26.599Z,17.74
2022-09-12T09:30:58.955Z,17.93
2022-09-12T09:32:36.906Z,18.15
2022-09-12T09:34:22.286Z,18.37
2022-09-12T09:35:56.898Z,18.53
2022-09-12T09:37:37.755Z,18.67
2022-09-12T09:39:30.527Z,18.73
2022-09-12T09:41:02.605Z,18.78
2022-09-12T09:42:46.838Z,18.79
2022-09-12T09:44:19.414Z,18.90
2022-09-12T09:45:52.421Z,18.97
2022-09-12T09:47:24.635Z,19.05
2022-09-12T09:48:58.667Z,19.20
2022-09-12T09:50:31.096Z,19.31
2022-09-12T09:52:04.265Z,19.44
2022-09-12T09:53:40.282Z,19.53
2022-09-12T09:55:16.336Z,19.60
2022-09-12T09:56:49.020Z,19.73
2022-09-12T09:58:31.243Z,19.91
2022-09-12T10:00:32.843Z,20.01
2022-09-12T10:02:14.100Z,19.96
2022-09-12T10:03:50.624Z,19.98
2022-09-12T10:05:23.445Z,20.10
2022-09-12T10:07:02.467Z,20.28
2022-09-12T10:08:36.690Z,20.51
2022-09-12T10:10:16.305Z,20.79
2022-09-12T10:11:49.597Z,21.06
2022-09-12T10:13:30.829Z,21.21
2022-09-12T10:15:14.242Z,21.29
2022-09-12T10:16:52.720Z,21.36
2022-09-12T10:18:35.737Z,21.44
2022-09-12T10:20:26.904Z,21.55
2022-09-12T10:22:00.946Z,21.62
2022-09-12T10:23:37.776Z,21.63
2022-09-12T10:25:12.205Z,21.51
2022-09-12T10:26:45.399Z,21.39
2022-09-12T10:28:22.770Z,21.18
2022-09-12T10:30:00.327Z,20.97
2022-09-12T10:31:43.239Z,20.74
2022-09-12T10:33:15.361Z,20.39
2022-09-12T10:34:47.993Z,20.10
2022-09-12T10:36:20.603Z,19.90
2022-09-12T10:37:58.572Z,19.87
2022-09-12T10:39:31.398Z,19.78
2022-09-12T10:41:11.539Z,19.69
2022-09-12T10:42:43.636Z,19.65
2022-09-12T10:44:28.960Z,19.62
2022-09-12T10:46:21.333Z,19.52
2022-09-12T10:47:54.291Z,19.47
2022-09-12T10:49:31.303Z,19.40
2022-09-12T10:51:03.513Z,19.39
2022-09-12T10:52:35.609Z,19.42
2022-09-12T10:54:10.200Z,19.47
2022-09-12T10:56:01.390Z,19.62
2022-09-12T10:57:44.348Z,19.95
2022-09-12T10:59:28.742Z,20.24
2022-09-12T11:01:09.964Z,20.53
2022-09-12T11:02:54.374Z,20.87
2022-09-12T11:04:32.332Z,21.19
2022-09-12T11:06:05.455Z,21.52
2022-09-12T11:07:47.890Z,21.85
2022-09-12T11:09:27.191Z,22.24
2022-09-12T11:11:14.652Z,22.55
2022-09-12T11:12:51.397Z,22.98
2022-09-12T11:14:27.963Z,23.26
2022-09-12T11:15:59.987Z,23.34
2022-09-12T11:17:53.663Z,23.29
2022-09-12T11:19:32.077Z,23.22
2022-09-12T11:21:16.285Z,23.07
2022-09-12T11:22:48.316Z,22.85
2022-09-12T11:24:31.434Z,22.60
2022-09-12T11:26:15.800Z,22.31
2022-09-12T11:27:53.635Z,21.98
2022-09-12T11:29:46.925Z,21.69
2022-09-12T11:31:23.055Z,21.53
2022-09-12T11:33:13.347Z,21.45
2022-09-12T11:35:04.546Z,21.39
2022-09-12T11:36:36.934Z,21.38
2022-09-12T11:38:11.817Z,21.30
2022-09-12T11:39:52.280Z,21.26
2022-09-12T11:41:31.538Z,21.22
2022-09-12T11:43:22.356Z,21.15
2022-09-12T11:44:59.936Z,21.13
2022-09-12T11:46:36.263Z,21.03
2022-09-12T11:48:11.880Z,21.01
2022-09-12T11:49:47.337Z,21.02
2022-09-12T11:51:20.884Z,21.03
2022-09-12T11:52:55.212Z,21.08
2022-09-12T11:54:28.029Z,21.11
2022-09-12T11:56:05.488Z,21.17
2022-09-12T11:57:41.140Z,21.22
2022-09-12T11:59:31.634Z,21.29
2022-09-12T12:01:15.390Z,21.31
2022-09-12T12:03:06.333Z,21.34
2022-09-12T12:04:41.719Z,21.31
2022-09-12T12:06:35.903Z,21.23
2022-09-12T12:08:08.519Z,21.29
2022-09-12T12:09:49.294Z,21.42
2022-09-12T12:11:43.658Z,21.51
2022-09-12T12:13:15.713Z,21.64
2022-09-12T12:14:49.001Z,21.69
2022-09-12T12:16:21.448Z,21.78
2022-09-12T12:18:19.988Z,21.95
2022-09-12T12:20:07.515Z,22.09
2022-09-12T12:21:40.822Z,22.28
2022-09-12T12:23:28.681Z,22.49
2022-09-12T12:25:03.649Z,22.79
2022-09-12T12:26:54.669Z,22.93
2022-09-12T12:28:42.309Z,22.93
2022-09-12T12:30:29.612Z,22.97
2022-09-12T12:32:02.164Z,22.87
2022-09-12T12:33:54.916Z,22.80
2022-09-12T12:35:36.766Z,22.78
2022-09-12T12:37:21.231Z,22.72
2022-09-12T12:38:53.835Z,22.63
2022-09-12T12:40:27.701Z,22.54
2022-09-12T12:42:00.226Z,22.57
2022-09-12T12:43:32.494Z,22.53
2022-09-12T12:45:23.558Z,22.43
2022-09-12T12:47:14.187Z,22.40
2022-09-12T12:48:54.736Z,22.39
2022-09-12T12:50:28.235Z,22.37
2022-09-12T12:52:03.817Z,22.35
2022-09-12T12:53:36.005Z,22.22
2022-09-12T12:55:20.490Z,22.23
2022-09-12T12:57:00.697Z,22.18
2022-09-12T12:58:40.723Z,22.14
2022-09-12T13:00:24.692Z,22.09
2022-09-12T13:01:58.921Z,21.98
2022-09-12T13:03:32.928Z,21.94
2022-09-12T13:05:08.019Z,22.00
2022-09-12T13:06:42.094Z,22.06
2022-09-12T13:08:17.391Z,22.05
2022-09-12T13:09:52.928Z,22.03
2022-09-12T13:11:35.376Z,21.95
2022-09-12T13:13:08.758Z,21.92
2022-09-12T13:14:43.961Z,21.87
2022-09-12T13:16:34.853Z,21.84
2022-09-12T13:18:21.854Z,21.80
2022-09-12T13:20:26.166Z,21.76
2022-09-12T13:22:00.738Z,21.64
2022-09-12T13:23:33.416Z,21.55
2022-09-12T13:25:19.318Z,21.44
2022-09-12T13:26:51.597Z,21.36
2022-09-12T13:28:24.463Z,21.32
2022-09-12T13:30:07.178Z,21.27
2022-09-12T13:31:43.151Z,21.34
2022-09-12T13:33:19.001Z,21.41
2022-09-12T13:35:17.190Z,21.51
2022-09-12T13:36:58.652Z,21.67
2022-09-12T13:38:42.292Z,21.85
2022-09-12T13:40:14.619Z,21.91
2022-09-12T13:41:55.410Z,22.06
2022-09-12T13:43:49.347Z,22.18
2022-09-12T13:45:23.339Z,22.29
2022-09-12T13:46:58.058Z,22.32
2022-09-12T13:48:30.957Z,22.35
2022-09-12T13:50:04.638Z,22.47
2022-09-12T13:51:37.015Z,22.62
2022-09-12T13:53:17.090Z,22.71
2022-09-12T13:54:52.169Z,22.90
2022-09-12T13:56:24.329Z,23.04
2022-09-12T13:57:58.184Z,23.12
2022-09-12T13:59:39.985Z,23.20
2022-09-12T14:01:13.871Z,23.33
2022-09-12T14:02:49.313Z,23.52
2022-09-12T14:04:43.893Z,23.60
2022-09-12T14:06:19.047Z,23.60
2022-09-12T14:07:55.303Z,23.60
2022-09-12T14:09:41.060Z,23.53
2022-09-12T14:11:21.101Z,23.37
2022-09-12T14:12:55.289Z,23.13
2022-09-12T14:14:31.508Z,22.87
2022-09-12T14:16:03.781Z,22.66
2022-09-12T14:17:38.808Z,22.51
2022-09-12T14:19:12.438Z,22.41
2022-09-12T14:20:44.594Z,22.23
2022-09-12T14:22:20.069Z,22.06
2022-09-12T14:23:52.195Z,21.95
2022-09-12T14:25:25.563Z,21.88
2022-09-12T14:26:57.920Z,21.69
2022-09-12T14:28:31.214Z,21.60
2022-09-12T14:30:03.518Z,21.56
2022-09-12T14:31:38.029Z,21.52
2022-09-12T14:33:10.124Z,21.45
2022-09-12T14:34:42.571Z,21.42
2022-09-12T14:36:23.951Z,21.42
2022-09-12T14:37:56.510Z,21.40
2022-09-12T14:39:31.841Z,21.34
2022-09-12T14:41:08.455Z,21.28
2022-09-12T14:42:41.227Z,21.21
2022-09-12T14:44:19.429Z,21.17
2022-09-12T14:45:52.964Z,21.01
2022-09-12T14:47:27.399Z,20.84
2022-09-12T14:49:19.786Z,20.68
2022-09-12T14:50:53.410Z,20.52
2022-09-12T14:52:30.113Z,20.40
2022-09-12T14:54:02.818Z,20.34
2022-09-12T14:55:43.201Z,20.23
2022-09-12T14:57:30.857Z,20.14
2022-09-12T14:59:21.796Z,20.14
2022-09-12T15:01:00.187Z,20.10
2022-09-12T15:02:34.133Z,20.11
2022-09-12T15:04:06.263Z,20.10
2022-09-12T15:05:48.361Z,20.09
2022-09-12T15:07:20.424Z,20.12
2022-09-12T15:08:57.418Z,20.15
2022-09-12T15:10:35.158Z,20.19
2022-09-12T15:12:09.255Z,20.21
2022-09-12T15:13:41.843Z,20.24
2022-09-12T15:15:18.785Z,20.25
2022-09-12T15:16:51.006Z,20.27
2022-09-12T15:18:24.526Z,20.26
2022-09-12T15:19:56.610Z,20.27
2022-09-12T15:21:29.261Z,20.25
2022-09-12T15:23:01.539Z,20.23
2022-09-12T15:24:33.666Z,20.24
2022-09-12T15:26:06.479Z,20.23
2022-09-12T15:27:42.344Z,20.21
2022-09-12T15:29:14.422Z,20.19
2022-09-12T15:30:47.491Z,20.18
2022-09-12T15:32:24.196Z,20.17
2022-09-12T15:33:59.152Z,20.13
2022-09-12T15:35:32.653Z,20.10
2022-09-12T15:37:09.124Z,20.03
2022-09-12T15:38:41.316Z,19.97
2022-09-12T15:40:13.780Z,19.89
2022-09-12T15:41:47.869Z,19.82
2022-09-12T15:43:20.822Z,19.77
2022-09-12T15:44:53.158Z,19.73
2022-09-12T15:46:25.714Z,19.68
2022-09-12T15:47:58.359Z,19.66
2022-09-12T15:49:30.413Z,19.63
2022-09-12T15:51:04.430Z,19.63
2022-09-12T15:52:36.859Z,19.61
2022-09-12T15:54:11.575Z,19.62
2022-09-12T15:55:44.040Z,19.62
2022-09-12T15:57:16.148Z,19.64
2022-09-12T15:58:59.279Z,19.67
2022-09-12T16:00:31.892Z,19.67
2022-09-12T16:02:04.169Z,19.67
2022-09-12T16:03:36.376Z,19.64
2022-09-12T16:05:13.341Z,19.62
2022-09-12T16:06:45.604Z,19.61
2022-09-12T16:08:17.756Z,19.59
2022-09-12T16:09:50.169Z,19.59
2022-09-12T16:11:22.565Z,19.61
2022-09-12T16:12:54.736Z,19.61
2022-09-12T16:14:26.836Z,19.64
2022-09-12T16:15:59.523Z,19.66
2022-09-12T16:17:31.949Z,19.66
2022-09-12T16:19:04.016Z,19.69
2022-09-12T16:20:36.135Z,19.67
2022-09-12T16:22:08.225Z,19.68
2022-09-12T16:23:42.252Z,19.65
2022-09-12T16:25:14.429Z,19.60
2022-09-12T16:26:46.798Z,19.55
2022-09-12T16:28:19.018Z,19.52
2022-09-12T16:29:52.067Z,19.45
2022-09-12T16:31:24.630Z,19.37
2022-09-12T16:32:56.759Z,19.33
2022-09-12T16:34:29.016Z,19.26
2022-09-12T16:36:09.371Z,19.17
2022-09-12T16:37:41.581Z,19.06
2022-09-12T16:39:13.934Z,18.98
2022-09-12T16:40:46.080Z,18.93
2022-09-12T16:42:19.406Z,18.87
2022-09-12T16:43:51.858Z,18.81
2022-09-12T16:45:23.959Z,18.78
2022-09-12T16:46:56.040Z,18.75
2022-09-12T16:48:28.756Z,18.71
2022-09-12T16:50:00.969Z,18.66
2022-09-12T16:51:36.097Z,18.63
2022-09-12T16:53:08.255Z,18.60
2022-09-12T16:54:40.729Z,18.58
2022-09-12T16:56:13.096Z,18.53
2022-09-12T16:57:45.977Z,18.53
2022-09-12T16:59:18.090Z,18.53
2022-09-12T17:00:59.660Z,18.53
2022-09-12T17:02:31.759Z,18.54
2022-09-12T17:04:04.025Z,18.53
2022-09-12T17:05:36.274Z,18.52
2022-09-12T17:07:08.803Z,18.48
2022-09-12T17:08:42.957Z,18.45
2022-09-12T17:10:15.273Z,18.37
2022-09-12T17:11:47.965Z,18.35
2022-09-12T17:13:20.350Z,18.29
2022-09-12T17:14:52.409Z,18.22
2022-09-12T17:16:24.849Z,18.18
2022-09-12T17:17:58.074Z,18.16
2022-09-12T17:19:30.714Z,18.14
2022-09-12T17:21:02.890Z,18.15
2022-09-12T17:22:35.015Z,18.14
2022-09-12T17:24:07.149Z,18.14
2022-09-12T17:25:39.668Z,18.10
2022-09-12T17:27:12.084Z,18.11
2022-09-12T17:28:44.316Z,18.10
2022-09-12T17:30:16.360Z,18.11
2022-09-12T17:31:48.930Z,18.13
2022-09-12T17:33:21.068Z,18.12
2022-09-12T17:34:53.337Z,18.11
2022-09-12T17:36:25.666Z,18.08
2022-09-12T17:37:59.224Z,18.06
2022-09-12T17:39:31.392Z,18.03
2022-09-12T17:41:07.677Z,17.95
2022-09-12T17:42:40.977Z,17.85
2022-09-12T17:44:14.997Z,17.76
2022-09-12T17:45:55.017Z,17.70
2022-09-12T17:47:27.577Z,17.60
2022-09-12T17:49:01.017Z,17.54
2022-09-12T17:50:40.605Z,17.51
2022-09-12T17:52:13.328Z,17.50
2022-09-12T17:53:45.486Z,17.50
2022-09-12T17:55:17.996Z,17.50
2022-09-12T17:56:51.607Z,17.48
2022-09-12T17:58:23.739Z,17.47
2022-09-12T17:59:55.803Z,17.46
2022-09-12T18:01:47.440Z,17.44
2022-09-12T18:03:23.219Z,17.43
2022-09-12T18:04:55.525Z,17.38
2022-09-12T18:06:31.878Z,17.37
2022-09-12T18:08:03.969Z,17.33
2022-09-12T18:09:36.493Z,17.27
2022-09-12T18:11:08.596Z,17.22
2022-09-12T18:12:40.915Z,17.20
2022-09-12T18:14:14.370Z,17.13
2022-09-12T18:15:47.117Z,17.12
2022-09-12T18:17:19.193Z,17.07
2022-09-12T18:18:51.573Z,17.04
2022-09-12T18:20:23.828Z,17.00
2022-09-12T18:21:56.406Z,16.92
2022-09-12T18:23:28.475Z,16.85
2022-09-12T18:25:00.539Z,16.81
2022-09-12T18:26:33.266Z,16.78
2022-09-12T18:28:09.257Z,16.73
2022-09-12T18:29:41.379Z,16.72
2022-09-12T18:31:15.342Z,16.70
2022-09-12T18:32:47.711Z,16.70
2022-09-12T18:34:20.485Z,16.67
2022-09-12T18:35:52.589Z,16.61
2022-09-12T18:37:24.802Z,16.56
2022-09-12T18:38:57.775Z,16.51
2022-09-12T18:40:30.143Z,16.50
2022-09-12T18:42:02.268Z,16.48
2022-09-12T18:43:34.429Z,16.46
2022-09-12T18:45:06.865Z,16.42
2022-09-12T18:46:39.415Z,16.37
2022-09-12T18:48:11.612Z,16.36
2022-09-12T18:49:43.688Z,16.34
2022-09-12T18:51:17.980Z,16.35
2022-09-12T18:52:56.733Z,16.37
2022-09-12T18:54:33.339Z,16.35
2022-09-12T18:56:12.679Z,16.31
2022-09-12T18:57:44.851Z,16.28
2022-09-12T18:59:17.312Z,16.27
2022-09-12T19:00:49.780Z,16.23
2022-09-12T19:02:21.886Z,16.20
2022-09-12T19:03:54.945Z,16.15
2022-09-12T19:05:28.258Z,16.10
2022-09-12T19:07:01.586Z,16.06
2022-09-12T19:08:34.242Z,16.00
2022-09-12T19:10:06.569Z,15.98
2022-09-12T19:11:40.356Z,15.96
2022-09-12T19:13:12.587Z,15.91
2022-09-12T19:14:44.721Z,15.86
2022-09-12T19:16:18.163Z,15.82
2022-09-12T19:17:50.567Z,15.75
2022-09-12T19:19:22.688Z,15.64
2022-09-12T19:20:54.781Z,15.53
2022-09-12T19:22:26.962Z,15.40
2022-09-12T19:24:00.625Z,15.26
2022-09-12T19:25:32.948Z,15.14
2022-09-12T19:27:05.305Z,14.99
2022-09-12T19:28:37.343Z,14.88
2022-09-12T19:30:10.030Z,14.82
2022-09-12T19:31:42.903Z,14.74
2022-09-12T19:33:14.970Z,14.69
2022-09-12T19:34:47.102Z,14.62
2022-09-12T19:38:14.071Z,14.49
2022-09-12T19:39:46.260Z,14.45
2022-09-12T19:41:19.136Z,14.46
2022-09-12T19:42:51.497Z,14.49
2022-09-12T19:44:27.028Z,14.53
2022-09-12T19:45:59.640Z,14.65
2022-09-12T19:47:32.059Z,14.79
2022-09-12T19:49:04.602Z,14.87
2022-09-12T19:50:36.635Z,14.93
2022-09-12T19:52:08.730Z,14.99
2022-09-12T19:53:42.050Z,15.01
2022-09-12T19:55:14.418Z,15.01
2022-09-12T19:56:46.497Z,15.02
2022-09-12T19:58:18.575Z,15.05
2022-09-12T19:59:50.826Z,15.12
2022-09-12T20:01:29.888Z,15.19
2022-09-12T20:03:02.168Z,15.22
2022-09-12T20:04:34.235Z,15.21
2022-09-12T20:06:07.556Z,15.17
2022-09-12T20:07:40.316Z,15.13
2022-09-12T20:09:12.447Z,15.08
2022-09-12T20:10:44.494Z,14.98
2022-09-12T20:12:16.817Z,14.86
2022-09-12T20:13:49.354Z,14.74
2022-09-12T20:15:21.468Z,14.61
2022-09-12T20:16:53.558Z,14.48
2022-09-12T20:18:25.753Z,14.35
2022-09-12T20:19:58.147Z,14.25
2022-09-12T20:21:31.903Z,14.20
2022-09-12T20:23:04.580Z,14.16
2022-09-12T20:24:37.483Z,14.15
2022-09-12T20:26:09.970Z,14.13
2022-09-12T20:27:41.975Z,14.13
2022-09-12T20:29:14.190Z,14.13
2022-09-12T20:30:46.266Z,14.12
2022-09-12T20:32:19.333Z,14.08